createdAt,value
2019-03-25T00:00:32.163Z,61.28
2019-03-25T00:02:37.751Z,57.00
2019-03-25T00:04:43.276Z,64.40
2019-03-25T00:06:48.822Z,61.45
2019-03-25T00:09:04.838Z,57.27
2019-03-25T00:11:04.277Z,61.77
2019-03-25T00:13:09.792Z,62.08
2019-03-25T00:15:16.531Z,61.00
2019-03-25T00:17:22.176Z,59.75
2019-03-25T00:19:27.693Z,64.22
2019-03-25T00:21:33.285Z,64.12
2019-03-25T00:23:38.904Z,63.02
2019-03-25T00:25:45.304Z,65.80
2019-03-25T00:27:50.814Z,64.12
2019-03-25T00:29:56.331Z,62.85
2019-03-25T00:32:01.856Z,61.05
2019-03-25T00:34:07.380Z,61.53
2019-03-25T00:36:12.928Z,59.90
2019-03-25T00:38:18.436Z,63.50
2019-03-25T00:40:23.949Z,59.03
2019-03-25T00:42:29.477Z,59.67
2019-03-25T00:44:34.984Z,61.35
2019-03-25T00:46:40.505Z,60.55
2019-03-25T00:48:46.033Z,57.27
2019-03-25T00:50:51.820Z,66.40
2019-03-25T00:52:57.401Z,68.30
2019-03-25T00:55:02.943Z,64.17
2019-03-25T00:57:08.455Z,62.20
2019-03-25T00:59:13.972Z,70.17
2019-03-25T01:01:19.595Z,63.78
2019-03-25T01:03:25.101Z,64.67
2019-03-25T01:05:30.755Z,59.93
2019-03-25T01:07:36.348Z,61.75
2019-03-25T01:09:53.989Z,65.40
2019-03-25T01:11:59.569Z,65.40
2019-03-25T01:14:05.093Z,63.52
2019-03-25T01:16:10.675Z,64.25
2019-03-25T01:18:17.287Z,64.60
2019-03-25T01:20:23.080Z,64.50
2019-03-25T01:22:28.672Z,69.87
2019-03-25T01:24:35.256Z,67.87
2019-03-25T01:26:40.812Z,73.35
2019-03-25T01:28:46.336Z,71.55
2019-03-25T01:30:51.840Z,76.07
2019-03-25T01:32:57.386Z,69.90
2019-03-25T01:35:02.969Z,75.75
2019-03-25T01:37:08.488Z,71.35
2019-03-25T01:39:14.045Z,67.37
2019-03-25T01:41:19.567Z,68.65
2019-03-25T01:43:25.082Z,68.15
2019-03-25T01:45:30.643Z,73.95
2019-03-25T01:47:36.164Z,71.40
2019-03-25T01:49:41.690Z,62.55
2019-03-25T01:51:47.293Z,58.60
2019-03-25T01:53:52.808Z,58.25
2019-03-25T01:55:58.330Z,60.52
2019-03-25T01:58:03.852Z,63.92
2019-03-25T02:00:10.148Z,67.17
2019-03-25T02:02:15.738Z,63.25
2019-03-25T02:04:21.248Z,66.72
2019-03-25T02:06:26.777Z,60.35
2019-03-25T02:08:32.306Z,58.10
2019-03-25T02:10:37.820Z,60.70
2019-03-25T02:12:43.366Z,65.55
2019-03-25T02:14:48.940Z,61.37
2019-03-25T02:16:54.456Z,64.55
2019-03-25T02:18:59.992Z,61.20
2019-03-25T02:21:05.745Z,54.93
2019-03-25T02:23:11.317Z,68.37
2019-03-25T02:25:25.428Z,63.65
2019-03-25T02:27:24.020Z,60.80
2019-03-25T02:29:29.536Z,67.22
2019-03-25T02:31:35.060Z,65.40
2019-03-25T02:33:40.575Z,66.55
2019-03-25T02:35:46.160Z,63.63
2019-03-25T02:37:51.687Z,66.85
2019-03-25T02:39:57.195Z,64.17
2019-03-25T02:42:02.727Z,64.45
2019-03-25T02:44:08.241Z,61.00
2019-03-25T02:46:13.766Z,60.23
2019-03-25T02:48:19.288Z,59.77
2019-03-25T02:50:24.810Z,56.37
2019-03-25T02:52:30.325Z,63.13
2019-03-25T02:54:35.844Z,68.37
2019-03-25T02:56:41.376Z,70.57
2019-03-25T02:58:46.888Z,67.05
2019-03-25T03:00:52.404Z,63.95
2019-03-25T03:02:57.949Z,73.62
2019-03-25T03:05:03.985Z,65.80
2019-03-25T03:07:09.503Z,59.53
2019-03-25T03:09:15.053Z,66.55
2019-03-25T03:11:20.562Z,69.22
2019-03-25T03:13:26.079Z,69.53
2019-03-25T03:15:31.606Z,69.35
2019-03-25T03:17:37.108Z,66.50
2019-03-25T03:19:42.653Z,72.35
2019-03-25T03:21:48.160Z,59.48
2019-03-25T03:23:53.682Z,61.48
2019-03-25T03:25:59.217Z,67.80
2019-03-25T03:28:04.866Z,69.55
2019-03-25T03:30:10.629Z,68.50
2019-03-25T03:32:16.178Z,59.23
2019-03-25T03:34:21.678Z,59.33
2019-03-25T03:36:27.206Z,71.92
2019-03-25T03:38:32.730Z,70.28
2019-03-25T03:40:38.334Z,62.53
2019-03-25T03:42:44.118Z,61.95
2019-03-25T03:44:49.648Z,67.12
2019-03-25T03:46:55.165Z,64.32
2019-03-25T03:49:00.681Z,62.43
2019-03-25T03:51:07.260Z,67.75
2019-03-25T03:53:12.885Z,64.80
2019-03-25T03:55:18.387Z,83.47
2019-03-25T03:57:24.364Z,70.37
2019-03-25T03:59:29.989Z,72.75
2019-03-25T04:01:35.479Z,74.22
2019-03-25T04:03:40.993Z,68.55
2019-03-25T04:05:46.515Z,75.97
2019-03-25T04:07:52.104Z,68.62
2019-03-25T04:09:57.621Z,62.10
2019-03-25T04:12:03.505Z,66.02
2019-03-25T04:14:09.023Z,61.68
2019-03-25T04:16:14.607Z,62.13
2019-03-25T04:18:20.206Z,60.35
2019-03-25T04:20:25.783Z,60.28
2019-03-25T04:22:31.298Z,60.20
2019-03-25T04:24:36.837Z,62.93
2019-03-25T04:26:42.348Z,60.83
2019-03-25T04:28:47.868Z,70.52
2019-03-25T04:30:53.389Z,70.10
2019-03-25T04:32:58.929Z,67.30
2019-03-25T04:35:05.170Z,58.33
2019-03-25T04:37:10.697Z,65.28
2019-03-25T04:39:16.219Z,58.13
2019-03-25T04:41:22.300Z,61.30
2019-03-25T04:43:27.854Z,76.80
2019-03-25T04:45:33.361Z,90.35
2019-03-25T04:47:38.885Z,93.80
2019-03-25T04:49:44.440Z,83.67
2019-03-25T04:51:49.969Z,77.78
2019-03-25T04:53:55.485Z,63.73
2019-03-25T04:56:01.014Z,70.85
2019-03-25T04:58:06.526Z,68.72
2019-03-25T05:00:12.685Z,66.33
2019-03-25T05:02:19.428Z,72.45
2019-03-25T05:04:25.787Z,74.65
2019-03-25T05:06:31.297Z,80.45
2019-03-25T05:08:36.816Z,91.87
2019-03-25T05:10:42.364Z,107.30
2019-03-25T05:12:47.891Z,120.28
2019-03-25T05:14:53.416Z,60.03
2019-03-25T05:16:58.947Z,62.75
2019-03-25T05:19:04.449Z,70.45
2019-03-25T05:21:09.998Z,61.98
2019-03-25T05:23:15.516Z,61.88
2019-03-25T05:25:21.030Z,76.67
2019-03-25T05:27:26.552Z,72.72
2019-03-25T05:29:32.080Z,70.52
2019-03-25T05:31:37.572Z,72.90
2019-03-25T05:33:43.121Z,76.60
2019-03-25T05:35:51.303Z,73.05
2019-03-25T05:37:56.811Z,90.45
2019-03-25T05:40:02.441Z,83.33
2019-03-25T05:42:09.033Z,86.45
2019-03-25T05:44:14.544Z,79.75
2019-03-25T05:46:20.088Z,79.12
2019-03-25T05:48:25.601Z,82.92
2019-03-25T05:50:31.137Z,76.28
2019-03-25T05:52:36.670Z,70.20
2019-03-25T05:54:42.181Z,73.60
2019-03-25T05:56:47.700Z,61.60
2019-03-25T05:58:53.254Z,60.15
2019-03-25T06:00:58.838Z,62.95
2019-03-25T06:03:04.429Z,60.23
2019-03-25T06:05:10.186Z,63.20
2019-03-25T06:07:15.703Z,60.55
2019-03-25T06:09:21.219Z,61.37
2019-03-25T06:11:26.772Z,60.10
2019-03-25T06:13:32.309Z,66.00
2019-03-25T06:15:37.884Z,70.78
2019-03-25T06:17:43.492Z,70.17
2019-03-25T06:19:49.081Z,69.35
2019-03-25T06:21:54.604Z,74.95
2019-03-25T06:24:01.199Z,65.17
2019-03-25T06:26:06.709Z,58.85
2019-03-25T06:28:12.228Z,66.47
2019-03-25T06:30:18.502Z,50.70
2019-03-25T06:32:24.020Z,52.40
2019-03-25T06:34:29.586Z,50.95
2019-03-25T06:36:35.116Z,45.58
2019-03-25T06:38:40.643Z,49.93
2019-03-25T06:40:46.166Z,49.08
2019-03-25T06:42:51.683Z,45.03
2019-03-25T06:44:57.276Z,46.08
2019-03-25T06:47:02.788Z,50.25
2019-03-25T06:49:08.316Z,46.85
2019-03-25T06:51:14.905Z,46.77
2019-03-25T06:53:20.421Z,37.63
2019-03-25T06:55:26.006Z,37.48
2019-03-25T06:57:31.512Z,28.05
2019-03-25T06:59:37.032Z,39.33
2019-03-25T07:01:42.596Z,32.65
2019-03-25T07:03:48.110Z,31.23
2019-03-25T07:05:53.622Z,40.20
2019-03-25T07:07:59.160Z,36.42
2019-03-25T07:10:06.424Z,29.77
2019-03-25T07:12:13.008Z,39.27
2019-03-25T07:14:18.896Z,34.85
2019-03-25T07:16:24.409Z,34.15
2019-03-25T07:18:29.942Z,33.18
2019-03-25T07:20:35.493Z,81.15
2019-03-25T07:22:41.015Z,72.90
2019-03-25T07:24:47.600Z,64.72
2019-03-25T07:26:55.507Z,43.10
2019-03-25T07:29:00.274Z,46.60
2019-03-25T07:31:05.796Z,36.42
2019-03-25T07:33:11.356Z,42.83
2019-03-25T07:35:16.960Z,36.08
2019-03-25T07:37:23.668Z,34.73
2019-03-25T07:39:29.463Z,35.85
2019-03-25T07:41:34.992Z,28.38
2019-03-25T07:43:40.512Z,37.70
2019-03-25T07:45:46.051Z,25.70
2019-03-25T07:47:51.578Z,25.97
2019-03-25T07:49:57.097Z,29.48
2019-03-25T07:52:02.623Z,27.58
2019-03-25T07:54:08.156Z,21.42
2019-03-25T07:56:13.680Z,21.62
2019-03-25T07:58:19.214Z,18.07
2019-03-25T08:00:24.922Z,19.17
2019-03-25T08:02:30.436Z,23.35
2019-03-25T08:04:35.988Z,21.70
2019-03-25T08:06:41.517Z,22.60
2019-03-25T08:08:47.124Z,29.72
2019-03-25T08:10:52.649Z,25.12
2019-03-25T08:12:58.555Z,25.60
2019-03-25T08:15:06.314Z,31.85
2019-03-25T08:17:11.946Z,24.95
2019-03-25T08:19:17.539Z,29.55
2019-03-25T08:21:24.992Z,29.27
2019-03-25T08:23:30.244Z,35.03
2019-03-25T08:25:35.784Z,24.70
2019-03-25T08:27:41.359Z,19.67
2019-03-25T08:29:46.909Z,23.85
2019-03-25T08:31:53.497Z,28.25
2019-03-25T08:33:59.028Z,20.77
2019-03-25T08:36:04.769Z,21.12
2019-03-25T08:38:10.279Z,29.67
2019-03-25T08:40:15.960Z,25.43
2019-03-25T08:42:21.484Z,85.25
2019-03-25T08:44:27.002Z,24.10
2019-03-25T08:46:33.593Z,27.58
2019-03-25T08:48:39.125Z,23.32
2019-03-25T08:50:44.645Z,24.70
2019-03-25T08:52:50.162Z,28.57
2019-03-25T08:54:55.688Z,32.08
2019-03-25T08:57:01.202Z,29.82
2019-03-25T08:59:06.724Z,26.97
2019-03-25T09:01:12.336Z,28.10
2019-03-25T09:03:19.840Z,27.10
2019-03-25T09:05:24.989Z,23.83
2019-03-25T09:07:30.516Z,37.17
2019-03-25T09:09:36.032Z,40.88
2019-03-25T09:11:41.564Z,34.27
2019-03-25T09:13:47.139Z,25.55
2019-03-25T09:15:55.357Z,57.15
2019-03-25T09:18:04.768Z,80.85
2019-03-25T09:20:11.258Z,40.08
2019-03-25T09:22:16.918Z,24.20
2019-03-25T09:24:22.543Z,25.08
2019-03-25T09:26:28.077Z,30.88
2019-03-25T09:28:33.609Z,30.37
2019-03-25T09:30:54.278Z,35.35
2019-03-25T09:32:59.824Z,71.17
2019-03-25T09:35:09.704Z,39.20
2019-03-25T09:37:15.326Z,45.40
2019-03-25T09:39:20.852Z,26.35
2019-03-25T09:41:27.768Z,26.02
2019-03-25T09:43:33.284Z,21.33
2019-03-25T09:45:38.865Z,24.00
2019-03-25T09:47:44.391Z,26.42
2019-03-25T09:49:49.928Z,26.48
2019-03-25T09:51:55.456Z,19.35
2019-03-25T09:54:00.985Z,18.50
2019-03-25T09:56:06.766Z,37.20
2019-03-25T09:58:12.360Z,26.75
2019-03-25T10:00:20.971Z,24.95
2019-03-25T10:02:26.494Z,29.48
2019-03-25T10:04:32.085Z,27.73
2019-03-25T10:06:49.898Z,19.00
2019-03-25T10:08:55.416Z,19.00
2019-03-25T10:11:00.960Z,22.00
2019-03-25T10:13:06.490Z,27.45
2019-03-25T10:15:12.449Z,33.70
2019-03-25T10:17:17.992Z,53.40
2019-03-25T10:19:23.505Z,50.17
2019-03-25T10:21:29.034Z,57.60
2019-03-25T10:23:34.633Z,56.92
2019-03-25T10:25:41.211Z,61.30
2019-03-25T10:27:46.744Z,80.07
2019-03-25T10:29:52.292Z,55.52
2019-03-25T10:31:57.812Z,65.92
2019-03-25T10:34:03.341Z,54.42
2019-03-25T10:36:08.905Z,48.10
2019-03-25T10:38:19.493Z,41.68
2019-03-25T10:40:21.563Z,36.48
2019-03-25T10:42:27.116Z,38.23
2019-03-25T10:44:32.632Z,63.40
2019-03-25T10:46:38.159Z,52.83
2019-03-25T10:48:43.696Z,51.83
2019-03-25T10:50:49.224Z,53.85
2019-03-25T10:52:54.762Z,55.05
2019-03-25T10:55:00.343Z,46.60
2019-03-25T10:57:06.372Z,58.45
2019-03-25T10:59:11.888Z,47.48
2019-03-25T11:01:17.433Z,42.93
2019-03-25T11:03:22.952Z,49.95
2019-03-25T11:05:28.484Z,42.73
2019-03-25T11:07:34.094Z,31.60
2019-03-25T11:09:39.740Z,37.63
2019-03-25T11:11:45.341Z,32.45
2019-03-25T11:13:50.864Z,34.05
2019-03-25T11:15:56.475Z,29.23
2019-03-25T11:18:02.079Z,28.75
2019-03-25T11:20:08.795Z,32.50
2019-03-25T11:22:14.342Z,36.15
2019-03-25T11:24:19.863Z,31.55
2019-03-25T11:26:25.376Z,36.60
2019-03-25T11:28:30.909Z,36.93
2019-03-25T11:30:51.590Z,28.77
2019-03-25T11:32:57.109Z,32.15
2019-03-25T11:35:02.713Z,28.60
2019-03-25T11:37:08.243Z,27.02
2019-03-25T11:39:13.895Z,26.02
2019-03-25T11:41:19.428Z,27.27
2019-03-25T11:43:25.013Z,35.55
2019-03-25T11:45:30.536Z,36.45
2019-03-25T11:47:36.159Z,34.35
2019-03-25T11:49:41.676Z,41.23
2019-03-25T11:51:48.795Z,25.30
2019-03-25T11:53:54.834Z,22.05
2019-03-25T11:56:00.352Z,23.77
2019-03-25T11:58:05.943Z,41.63
2019-03-25T12:00:12.081Z,26.70
2019-03-25T12:02:18.026Z,22.70
2019-03-25T12:04:23.616Z,26.75
2019-03-25T12:06:29.182Z,28.70
2019-03-25T12:08:46.755Z,24.10
2019-03-25T12:10:52.340Z,21.57
2019-03-25T12:12:57.861Z,22.95
2019-03-25T12:15:04.642Z,21.25
2019-03-25T12:17:10.153Z,25.12
2019-03-25T12:19:15.685Z,27.62
2019-03-25T12:21:21.202Z,39.08
2019-03-25T12:23:26.820Z,36.30
2019-03-25T12:25:32.344Z,38.58
2019-03-25T12:27:37.865Z,39.10
2019-03-25T12:29:43.402Z,47.27
2019-03-25T12:31:48.951Z,37.50
2019-03-25T12:33:54.493Z,47.35
2019-03-25T12:36:00.005Z,36.68
2019-03-25T12:38:05.603Z,51.15
2019-03-25T12:40:11.264Z,58.10
2019-03-25T12:42:16.790Z,54.35
2019-03-25T12:44:22.315Z,56.90
2019-03-25T12:46:27.907Z,45.85
2019-03-25T12:48:33.424Z,49.08
2019-03-25T12:50:38.973Z,38.90
2019-03-25T12:52:44.483Z,38.15
2019-03-25T12:54:50.011Z,30.55
2019-03-25T12:56:55.564Z,29.55
2019-03-25T12:59:01.089Z,35.28
2019-03-25T13:01:06.677Z,29.45
2019-03-25T13:03:12.363Z,36.28
2019-03-25T13:05:17.879Z,29.12
2019-03-25T13:07:23.479Z,25.37
2019-03-25T13:09:29.017Z,16.90
2019-03-25T13:11:34.568Z,18.50
2019-03-25T13:13:40.100Z,29.30
2019-03-25T13:15:45.621Z,22.80
2019-03-25T13:17:51.184Z,25.68
2019-03-25T13:19:56.706Z,22.82
2019-03-25T13:22:02.232Z,23.12
2019-03-25T13:24:07.768Z,26.48
2019-03-25T13:26:13.280Z,25.23
2019-03-25T13:28:18.799Z,23.30
2019-03-25T13:30:24.404Z,24.47
2019-03-25T13:32:29.926Z,23.02
2019-03-25T13:34:35.452Z,31.05
2019-03-25T13:36:41.024Z,37.93
2019-03-25T13:38:46.532Z,16.32
2019-03-25T13:40:52.056Z,19.80
2019-03-25T13:42:57.764Z,15.72
2019-03-25T13:45:03.444Z,17.02
2019-03-25T13:47:08.971Z,21.40
2019-03-25T13:49:14.500Z,17.80
2019-03-25T13:51:20.003Z,20.37
2019-03-25T13:53:25.532Z,25.68
2019-03-25T13:55:31.080Z,34.90
2019-03-25T13:57:36.605Z,33.30
2019-03-25T13:59:42.112Z,34.35
2019-03-25T14:01:47.640Z,24.02
2019-03-25T14:03:53.406Z,25.25
2019-03-25T14:05:58.926Z,19.17
2019-03-25T14:08:04.578Z,14.73
2019-03-25T14:10:11.381Z,18.40
2019-03-25T14:12:16.894Z,17.17
2019-03-25T14:14:22.417Z,16.95
2019-03-25T14:16:27.946Z,17.15
2019-03-25T14:18:33.492Z,29.72
2019-03-25T14:20:39.044Z,33.90
2019-03-25T14:22:44.591Z,54.13
2019-03-25T14:24:50.116Z,25.68
2019-03-25T14:26:55.647Z,39.15
2019-03-25T14:29:01.165Z,32.65
2019-03-25T14:31:06.683Z,26.97
2019-03-25T14:33:12.235Z,46.90
2019-03-25T14:35:17.743Z,53.45
2019-03-25T14:37:23.267Z,32.63
2019-03-25T14:39:28.799Z,22.98
2019-03-25T14:41:34.302Z,20.75
2019-03-25T14:43:39.813Z,22.48
2019-03-25T14:45:46.443Z,15.95
2019-03-25T14:47:53.031Z,27.77
2019-03-25T14:49:58.548Z,19.25
2019-03-25T14:52:04.144Z,30.60
2019-03-25T14:54:09.650Z,17.73
2019-03-25T14:56:15.169Z,10.60
2019-03-25T14:58:20.687Z,13.48
2019-03-25T15:00:26.203Z,15.28
2019-03-25T15:02:31.719Z,46.92
2019-03-25T15:04:37.238Z,17.90
2019-03-25T15:06:42.818Z,13.35
2019-03-25T15:08:48.406Z,19.00
2019-03-25T15:10:54.016Z,37.85
2019-03-25T15:12:59.642Z,25.77
2019-03-25T15:15:09.344Z,13.93
2019-03-25T15:17:14.860Z,25.02
2019-03-25T15:19:20.391Z,18.48
2019-03-25T15:21:25.923Z,13.75
2019-03-25T15:23:31.444Z,19.35
2019-03-25T15:25:36.986Z,10.55
2019-03-25T15:27:42.569Z,10.05
2019-03-25T15:29:49.596Z,13.35
2019-03-25T15:31:55.145Z,16.40
2019-03-25T15:34:00.674Z,15.05
2019-03-25T15:36:06.244Z,15.13
2019-03-25T15:38:11.772Z,13.43
2019-03-25T15:40:17.774Z,12.13
2019-03-25T15:42:23.248Z,14.28
2019-03-25T15:44:28.767Z,17.30
2019-03-25T15:46:34.267Z,15.30
2019-03-25T15:48:39.921Z,19.27
2019-03-25T15:50:45.559Z,16.42
2019-03-25T15:52:51.080Z,18.55
2019-03-25T15:54:56.591Z,17.77
2019-03-25T15:57:02.142Z,17.23
2019-03-25T15:59:07.657Z,18.10
2019-03-25T16:01:13.173Z,16.85
2019-03-25T16:03:18.713Z,24.43
2019-03-25T16:05:24.358Z,21.95
2019-03-25T16:07:29.898Z,28.02
2019-03-25T16:09:35.448Z,21.42
2019-03-25T16:11:41.310Z,20.48
2019-03-25T16:13:46.822Z,26.85
2019-03-25T16:15:52.341Z,22.48
2019-03-25T16:17:57.853Z,34.18
2019-03-25T16:20:05.608Z,50.80
2019-03-25T16:22:11.152Z,33.78
2019-03-25T16:24:17.728Z,27.02
2019-03-25T16:26:23.324Z,30.20
2019-03-25T16:28:28.852Z,27.70
2019-03-25T16:30:34.370Z,26.20
2019-03-25T16:32:39.886Z,40.17
2019-03-25T16:34:45.441Z,21.55
2019-03-25T16:36:51.033Z,23.55
2019-03-25T16:38:56.561Z,32.93
2019-03-25T16:41:02.095Z,18.12
2019-03-25T16:43:07.669Z,38.38
2019-03-25T16:45:13.324Z,28.57
2019-03-25T16:47:18.844Z,23.32
2019-03-25T16:49:24.355Z,20.82
2019-03-25T16:51:29.872Z,24.65
2019-03-25T16:53:35.399Z,29.77
2019-03-25T16:55:40.921Z,46.23
2019-03-25T16:57:46.451Z,38.83
2019-03-25T16:59:51.995Z,44.90
2019-03-25T17:01:57.508Z,42.17
2019-03-25T17:04:03.027Z,54.25
2019-03-25T17:06:08.633Z,76.42
2019-03-25T17:08:15.225Z,83.10
2019-03-25T17:10:21.809Z,50.48
2019-03-25T17:12:27.351Z,62.65
2019-03-25T17:14:32.877Z,30.92
2019-03-25T17:16:38.423Z,85.03
2019-03-25T17:18:43.936Z,38.02
2019-03-25T17:20:49.458Z,40.95
2019-03-25T17:22:54.980Z,83.20
2019-03-25T17:25:00.493Z,56.13
2019-03-25T17:27:06.005Z,44.95
2019-03-25T17:29:11.534Z,36.70
2019-03-25T17:31:21.171Z,27.02
2019-03-25T17:33:24.196Z,20.95
2019-03-25T17:35:30.817Z,35.10
2019-03-25T17:37:36.336Z,36.60
2019-03-25T17:39:41.852Z,31.55
2019-03-25T17:41:47.419Z,48.85
2019-03-25T17:43:52.916Z,57.75
2019-03-25T17:45:58.431Z,46.77
2019-03-25T17:48:04.069Z,52.78
2019-03-25T17:50:10.368Z,75.92
2019-03-25T17:52:15.876Z,116.67
2019-03-25T17:54:21.435Z,78.50
2019-03-25T17:56:26.941Z,87.25
2019-03-25T17:58:32.456Z,96.10
2019-03-25T18:00:54.500Z,80.53
2019-03-25T18:03:10.555Z,72.78
2019-03-25T18:05:08.436Z,44.18
2019-03-25T18:07:14.042Z,62.48
2019-03-25T18:09:19.562Z,51.65
2019-03-25T18:11:25.144Z,37.35
2019-03-25T18:13:30.705Z,46.33
2019-03-25T18:15:36.229Z,34.90
2019-03-25T18:17:41.747Z,48.73
2019-03-25T18:19:48.343Z,52.23
2019-03-25T18:21:53.860Z,47.38
2019-03-25T18:23:59.444Z,57.23
2019-03-25T18:26:06.017Z,46.33
2019-03-25T18:28:11.548Z,58.15
2019-03-25T18:30:18.767Z,40.10
2019-03-25T18:32:24.293Z,34.30
2019-03-25T18:34:29.828Z,44.77
2019-03-25T18:36:35.337Z,56.63
2019-03-25T18:38:40.874Z,42.95
2019-03-25T18:40:46.393Z,55.03
2019-03-25T18:42:51.908Z,58.23
2019-03-25T18:44:57.438Z,60.70
2019-03-25T18:47:02.952Z,60.88
2019-03-25T18:49:08.458Z,55.60
2019-03-25T18:51:14.140Z,62.55
2019-03-25T18:53:19.668Z,65.92
2019-03-25T18:55:25.181Z,70.55
2019-03-25T18:57:30.751Z,76.77
2019-03-25T18:59:36.270Z,68.57
2019-03-25T19:01:41.928Z,75.70
2019-03-25T19:03:47.458Z,98.82
2019-03-25T19:05:53.050Z,90.70
2019-03-25T19:08:00.992Z,90.90
2019-03-25T19:10:09.638Z,105.15
2019-03-25T19:12:15.208Z,96.30
2019-03-25T19:14:20.722Z,103.17
2019-03-25T19:16:26.248Z,97.97
2019-03-25T19:18:31.775Z,103.00
2019-03-25T19:20:37.293Z,91.97
2019-03-25T19:22:42.869Z,88.85
2019-03-25T19:24:48.342Z,99.35
2019-03-25T19:26:53.851Z,105.05
2019-03-25T19:28:59.717Z,98.17
2019-03-25T19:31:05.318Z,101.22
2019-03-25T19:33:10.888Z,114.97
2019-03-25T19:35:16.511Z,104.95
2019-03-25T19:37:22.066Z,110.28
2019-03-25T19:39:27.576Z,112.30
2019-03-25T19:41:33.351Z,114.37
2019-03-25T19:43:38.877Z,124.97
2019-03-25T19:45:44.544Z,112.37
2019-03-25T19:47:50.102Z,134.45
2019-03-25T19:49:55.640Z,117.95
2019-03-25T19:52:01.150Z,101.78
2019-03-25T19:54:06.719Z,103.65
2019-03-25T19:56:12.205Z,92.70
2019-03-25T19:58:17.700Z,74.00
2019-03-25T20:00:35.382Z,61.70
2019-03-25T20:02:40.896Z,62.75
2019-03-25T20:04:46.472Z,63.23
2019-03-25T20:06:52.103Z,72.97
2019-03-25T20:08:57.669Z,77.55
2019-03-25T20:11:03.284Z,72.42
2019-03-25T20:13:08.818Z,75.15
2019-03-25T20:15:16.176Z,81.55
2019-03-25T20:17:21.902Z,82.33
2019-03-25T20:19:27.439Z,81.30
2019-03-25T20:21:32.935Z,85.17
2019-03-25T20:23:38.454Z,98.25
2019-03-25T20:25:44.131Z,107.43
2019-03-25T20:27:49.627Z,92.22
2019-03-25T20:29:55.182Z,100.75
2019-03-25T20:32:00.636Z,112.03
2019-03-25T20:34:11.326Z,108.92
2019-03-25T20:36:13.369Z,104.03
2019-03-25T20:38:18.884Z,101.10
2019-03-25T20:40:24.428Z,95.45
2019-03-25T20:42:29.931Z,91.15
2019-03-25T20:44:35.443Z,103.75
2019-03-25T20:46:40.988Z,90.45
2019-03-25T20:48:46.564Z,92.47
2019-03-25T20:50:52.025Z,87.20
2019-03-25T20:52:57.575Z,90.17
2019-03-25T20:55:03.162Z,80.00
2019-03-25T20:57:08.809Z,82.30
2019-03-25T20:59:14.403Z,87.57
2019-03-25T21:01:19.989Z,80.83
2019-03-25T21:03:25.448Z,76.22
2019-03-25T21:05:34.013Z,52.80
2019-03-25T21:07:39.713Z,56.30
2019-03-25T21:09:45.341Z,47.03
2019-03-25T21:11:50.811Z,50.67
2019-03-25T21:13:56.457Z,49.45
2019-03-25T21:16:01.945Z,54.67
2019-03-25T21:18:07.507Z,51.48
2019-03-25T21:20:13.196Z,45.00
2019-03-25T21:22:18.640Z,82.65
2019-03-25T21:24:24.224Z,78.22
2019-03-25T21:26:29.728Z,59.53
2019-03-25T21:28:38.107Z,50.78
2019-03-25T21:30:48.293Z,39.03
2019-03-25T21:32:58.139Z,29.50
2019-03-25T21:34:57.920Z,33.00
2019-03-25T21:37:05.670Z,29.20
2019-03-25T21:39:10.626Z,31.77
2019-03-25T21:41:16.185Z,27.77
2019-03-25T21:43:21.702Z,24.00
2019-03-25T21:45:27.252Z,27.77
2019-03-25T21:47:32.819Z,24.23
2019-03-25T21:49:43.070Z,27.62
2019-03-25T21:51:48.620Z,25.62
2019-03-25T21:53:54.162Z,25.20
2019-03-25T21:56:00.790Z,26.40
2019-03-25T21:58:06.321Z,32.45
2019-03-25T22:00:12.655Z,33.95
2019-03-25T22:02:18.328Z,31.97
2019-03-25T22:04:23.913Z,30.48
2019-03-25T22:06:29.427Z,29.72
2019-03-25T22:08:34.937Z,32.83
2019-03-25T22:10:42.834Z,30.68
2019-03-25T22:12:47.683Z,24.72
2019-03-25T22:14:53.203Z,29.98
2019-03-25T22:16:58.743Z,28.32
2019-03-25T22:19:04.314Z,28.23
2019-03-25T22:21:09.896Z,28.23
2019-03-25T22:23:15.404Z,31.50
2019-03-25T22:25:20.939Z,27.13
2019-03-25T22:27:26.433Z,32.08
2019-03-25T22:29:31.949Z,33.33
2019-03-25T22:31:37.472Z,29.50
2019-03-25T22:33:44.053Z,37.67
2019-03-25T22:35:49.569Z,29.65
2019-03-25T22:37:55.108Z,35.38
2019-03-25T22:40:00.615Z,35.70
2019-03-25T22:42:06.124Z,33.85
2019-03-25T22:44:11.643Z,27.45
2019-03-25T22:46:17.161Z,29.55
2019-03-25T22:48:22.672Z,26.00
2019-03-25T22:50:29.832Z,30.27
2019-03-25T22:52:35.337Z,28.92
2019-03-25T22:54:40.856Z,30.65
2019-03-25T22:56:46.391Z,34.38
2019-03-25T22:58:51.896Z,38.85
2019-03-25T23:00:59.577Z,35.70
2019-03-25T23:03:05.471Z,28.95
2019-03-25T23:05:12.885Z,32.75
2019-03-25T23:07:21.471Z,26.42
2019-03-25T23:09:27.264Z,32.53
2019-03-25T23:11:35.292Z,34.23
2019-03-25T23:13:41.132Z,32.80
2019-03-25T23:15:50.047Z,34.58
2019-03-25T23:17:55.827Z,38.63
2019-03-25T23:20:03.069Z,31.62
2019-03-25T23:22:08.907Z,35.05
2019-03-25T23:24:17.560Z,31.45
2019-03-25T23:26:23.347Z,38.15
2019-03-25T23:28:30.654Z,36.25
2019-03-25T23:30:36.557Z,43.25
2019-03-25T23:32:43.910Z,36.50
2019-03-25T23:34:49.689Z,41.77
2019-03-25T23:36:55.204Z,35.98
2019-03-25T23:39:00.724Z,73.83
2019-03-25T23:41:07.883Z,123.50
2019-03-25T23:43:13.393Z,105.00
2019-03-25T23:45:18.975Z,56.58
2019-03-25T23:47:24.530Z,36.55
2019-03-25T23:49:30.045Z,27.75
2019-03-25T23:51:35.577Z,37.13
2019-03-25T23:53:41.103Z,24.60
2019-03-25T23:55:46.625Z,38.73
2019-03-25T23:57:52.243Z,33.33
2019-03-25T23:59:57.764Z,40.67
